sensor_id;sensor_type;location;lat;lon;timestamp;P1;durP1;ratioP1;P2;durP2;ratioP2
72301;SDS011;60235;52.234;5.186;2023-04-03T00:02:09;6.32;;;1.10;;
72301;SDS011;60235;52.234;5.186;2023-04-03T00:04:35;4.03;;;1.00;;
72301;SDS011;60235;52.234;5.186;2023-04-03T00:07:01;5.13;;;1.30;;
72301;SDS011;60235;52.234;5.186;2023-04-03T00:09:27;3.83;;;1.00;;
72301;SDS011;60235;52.234;5.186;2023-04-03T00:11:53;4.63;;;1.25;;
72301;SDS011;60235;52.234;5.186;2023-04-03T00:14:19;4.10;;;1.10;;
72301;SDS011;60235;52.234;5.186;2023-04-03T00:16:45;7.07;;;1.30;;
72301;SDS011;60235;52.234;5.186;2023-04-03T00:19:11;6.60;;;1.33;;
72301;SDS011;60235;52.234;5.186;2023-04-03T00:21:37;5.45;;;1.10;;
72301;SDS011;60235;52.234;5.186;2023-04-03T00:24:03;5.63;;;1.50;;
72301;SDS011;60235;52.234;5.186;2023-04-03T00:26:29;6.05;;;1.58;;
72301;SDS011;60235;52.234;5.186;2023-04-03T00:28:55;5.30;;;1.35;;
72301;SDS011;60235;52.234;5.186;2023-04-03T00:31:21;5.53;;;1.20;;
72301;SDS011;60235;52.234;5.186;2023-04-03T00:33:47;4.03;;;1.10;;
72301;SDS011;60235;52.234;5.186;2023-04-03T00:36:13;5.88;;;1.15;;
72301;SDS011;60235;52.234;5.186;2023-04-03T00:38:40;9.25;;;1.65;;
72301;SDS011;60235;52.234;5.186;2023-04-03T00:41:06;2.97;;;0.90;;
72301;SDS011;60235;52.234;5.186;2023-04-03T00:43:32;5.47;;;1.25;;
72301;SDS011;60235;52.234;5.186;2023-04-03T00:45:58;6.07;;;1.15;;
72301;SDS011;60235;52.234;5.186;2023-04-03T00:48:26;4.72;;;1.10;;
72301;SDS011;60235;52.234;5.186;2023-04-03T00:50:53;5.07;;;1.30;;
72301;SDS011;60235;52.234;5.186;2023-04-03T00:53:24;4.63;;;1.13;;
72301;SDS011;60235;52.234;5.186;2023-04-03T00:55:51;5.07;;;1.15;;
72301;SDS011;60235;52.234;5.186;2023-04-03T00:58:18;4.10;;;1.00;;
72301;SDS011;60235;52.234;5.186;2023-04-03T01:00:46;6.50;;;1.38;;
72301;SDS011;60235;52.234;5.186;2023-04-03T01:03:13;7.13;;;1.20;;
72301;SDS011;60235;52.234;5.186;2023-04-03T01:05:40;5.68;;;1.23;;
72301;SDS011;60235;52.234;5.186;2023-04-03T01:08:06;4.15;;;1.20;;
72301;SDS011;60235;52.234;5.186;2023-04-03T01:10:32;4.82;;;1.13;;
72301;SDS011;60235;52.234;5.186;2023-04-03T01:12:58;5.10;;;1.58;;
72301;SDS011;60235;52.234;5.186;2023-04-03T01:15:26;4.13;;;1.30;;
72301;SDS011;60235;52.234;5.186;2023-04-03T01:17:56;5.10;;;1.10;;
72301;SDS011;60235;52.234;5.186;2023-04-03T01:23:12;7.50;;;1.27;;
72301;SDS011;60235;52.234;5.186;2023-04-03T01:25:42;4.13;;;1.38;;
72301;SDS011;60235;52.234;5.186;2023-04-03T01:28:11;5.68;;;1.10;;
72301;SDS011;60235;52.234;5.186;2023-04-03T01:30:41;7.82;;;1.55;;
72301;SDS011;60235;52.234;5.186;2023-04-03T01:33:08;4.70;;;1.00;;
72301;SDS011;60235;52.234;5.186;2023-04-03T01:35:34;4.72;;;1.00;;
72301;SDS011;60235;52.234;5.186;2023-04-03T01:38:00;9.98;;;1.40;;
72301;SDS011;60235;52.234;5.186;2023-04-03T01:40:26;4.97;;;1.10;;
72301;SDS011;60235;52.234;5.186;2023-04-03T01:42:52;3.58;;;1.08;;
72301;SDS011;60235;52.234;5.186;2023-04-03T01:45:18;5.47;;;1.30;;
72301;SDS011;60235;52.234;5.186;2023-04-03T01:47:44;7.15;;;1.70;;
72301;SDS011;60235;52.234;5.186;2023-04-03T01:50:10;7.45;;;1.40;;
72301;SDS011;60235;52.234;5.186;2023-04-03T01:52:36;4.97;;;1.33;;
72301;SDS011;60235;52.234;5.186;2023-04-03T01:55:02;4.70;;;1.30;;
72301;SDS011;60235;52.234;5.186;2023-04-03T01:57:28;3.70;;;1.15;;
72301;SDS011;60235;52.234;5.186;2023-04-03T01:59:55;4.35;;;1.30;;
72301;SDS011;60235;52.234;5.186;2023-04-03T02:02:21;5.35;;;1.27;;
72301;SDS011;60235;52.234;5.186;2023-04-03T02:04:47;6.03;;;1.42;;
72301;SDS011;60235;52.234;5.186;2023-04-03T02:07:13;5.45;;;1.25;;
72301;SDS011;60235;52.234;5.186;2023-04-03T02:09:39;6.75;;;1.10;;
72301;SDS011;60235;52.234;5.186;2023-04-03T02:12:05;6.20;;;1.35;;
72301;SDS011;60235;52.234;5.186;2023-04-03T02:14:31;3.72;;;1.15;;
72301;SDS011;60235;52.234;5.186;2023-04-03T02:16:57;4.97;;;1.40;;
72301;SDS011;60235;52.234;5.186;2023-04-03T02:19:23;6.05;;;1.48;;
72301;SDS011;60235;52.234;5.186;2023-04-03T02:21:49;6.65;;;1.58;;
72301;SDS011;60235;52.234;5.186;2023-04-03T02:24:15;4.60;;;1.40;;
72301;SDS011;60235;52.234;5.186;2023-04-03T02:26:41;7.18;;;1.63;;
72301;SDS011;60235;52.234;5.186;2023-04-03T02:29:07;3.90;;;1.30;;
72301;SDS011;60235;52.234;5.186;2023-04-03T02:31:33;6.40;;;1.67;;
72301;SDS011;60235;52.234;5.186;2023-04-03T02:33:59;5.03;;;1.52;;
72301;SDS011;60235;52.234;5.186;2023-04-03T02:36:25;8.38;;;1.52;;
72301;SDS011;60235;52.234;5.186;2023-04-03T02:38:51;6.43;;;1.33;;
72301;SDS011;60235;52.234;5.186;2023-04-03T02:41:17;6.68;;;1.48;;
72301;SDS011;60235;52.234;5.186;2023-04-03T02:43:43;6.75;;;1.55;;
72301;SDS011;60235;52.234;5.186;2023-04-03T02:46:09;6.00;;;1.58;;
72301;SDS011;60235;52.234;5.186;2023-04-03T02:48:35;6.22;;;1.40;;
72301;SDS011;60235;52.234;5.186;2023-04-03T02:51:01;7.25;;;1.60;;
72301;SDS011;60235;52.234;5.186;2023-04-03T02:53:28;8.43;;;1.70;;
72301;SDS011;60235;52.234;5.186;2023-04-03T02:55:54;6.60;;;1.63;;
72301;SDS011;60235;52.234;5.186;2023-04-03T02:58:19;5.60;;;1.40;;
72301;SDS011;60235;52.234;5.186;2023-04-03T03:00:46;6.55;;;1.40;;
72301;SDS011;60235;52.234;5.186;2023-04-03T03:03:11;6.40;;;1.52;;
72301;SDS011;60235;52.234;5.186;2023-04-03T03:05:39;6.30;;;1.70;;
72301;SDS011;60235;52.234;5.186;2023-04-03T03:08:05;7.68;;;1.70;;
72301;SDS011;60235;52.234;5.186;2023-04-03T03:10:30;6.13;;;1.45;;
72301;SDS011;60235;52.234;5.186;2023-04-03T03:12:57;7.55;;;1.80;;
72301;SDS011;60235;52.234;5.186;2023-04-03T03:15:22;7.30;;;1.35;;
72301;SDS011;60235;52.234;5.186;2023-04-03T03:17:48;7.18;;;1.67;;
72301;SDS011;60235;52.234;5.186;2023-04-03T03:20:14;9.63;;;1.90;;
72301;SDS011;60235;52.234;5.186;2023-04-03T03:22:41;6.90;;;1.60;;
72301;SDS011;60235;52.234;5.186;2023-04-03T03:25:07;6.00;;;1.40;;
72301;SDS011;60235;52.234;5.186;2023-04-03T03:27:33;6.13;;;1.80;;
72301;SDS011;60235;52.234;5.186;2023-04-03T03:29:59;6.38;;;1.45;;
72301;SDS011;60235;52.234;5.186;2023-04-03T03:32:25;5.07;;;1.50;;
72301;SDS011;60235;52.234;5.186;2023-04-03T03:34:51;4.38;;;1.40;;
72301;SDS011;60235;52.234;5.186;2023-04-03T03:37:17;5.65;;;1.25;;
72301;SDS011;60235;52.234;5.186;2023-04-03T03:39:43;7.80;;;1.63;;
72301;SDS011;60235;52.234;5.186;2023-04-03T03:42:09;6.70;;;1.73;;
72301;SDS011;60235;52.234;5.186;2023-04-03T03:44:36;9.35;;;1.65;;
72301;SDS011;60235;52.234;5.186;2023-04-03T03:47:02;7.65;;;1.55;;
72301;SDS011;60235;52.234;5.186;2023-04-03T03:49:28;7.40;;;1.80;;
72301;SDS011;60235;52.234;5.186;2023-04-03T03:51:54;5.75;;;1.60;;
72301;SDS011;60235;52.234;5.186;2023-04-03T03:54:20;6.90;;;1.50;;
72301;SDS011;60235;52.234;5.186;2023-04-03T03:56:46;9.07;;;1.85;;
72301;SDS011;60235;52.234;5.186;2023-04-03T03:59:12;7.65;;;1.60;;
72301;SDS011;60235;52.234;5.186;2023-04-03T04:01:38;7.07;;;2.05;;
72301;SDS011;60235;52.234;5.186;2023-04-03T04:04:04;6.63;;;1.60;;
72301;SDS011;60235;52.234;5.186;2023-04-03T04:06:30;8.20;;;2.00;;
72301;SDS011;60235;52.234;5.186;2023-04-03T04:08:56;5.95;;;1.70;;
72301;SDS011;60235;52.234;5.186;2023-04-03T04:11:22;6.88;;;1.40;;
72301;SDS011;60235;52.234;5.186;2023-04-03T04:13:48;9.05;;;1.83;;
72301;SDS011;60235;52.234;5.186;2023-04-03T04:16:14;6.40;;;1.55;;
72301;SDS011;60235;52.234;5.186;2023-04-03T04:18:40;8.18;;;1.75;;
72301;SDS011;60235;52.234;5.186;2023-04-03T04:21:06;8.30;;;1.90;;
72301;SDS011;60235;52.234;5.186;2023-04-03T04:23:32;6.82;;;1.60;;
72301;SDS011;60235;52.234;5.186;2023-04-03T04:25:58;6.38;;;1.67;;
72301;SDS011;60235;52.234;5.186;2023-04-03T04:28:24;5.50;;;1.63;;
72301;SDS011;60235;52.234;5.186;2023-04-03T04:30:50;7.65;;;1.83;;
72301;SDS011;60235;52.234;5.186;2023-04-03T04:33:16;6.88;;;1.90;;
72301;SDS011;60235;52.234;5.186;2023-04-03T04:35:42;9.20;;;1.60;;
72301;SDS011;60235;52.234;5.186;2023-04-03T04:38:08;7.45;;;1.77;;
72301;SDS011;60235;52.234;5.186;2023-04-03T04:40:35;8.13;;;1.83;;
72301;SDS011;60235;52.234;5.186;2023-04-03T04:43:02;6.78;;;1.73;;
72301;SDS011;60235;52.234;5.186;2023-04-03T04:45:28;6.28;;;1.60;;
72301;SDS011;60235;52.234;5.186;2023-04-03T04:47:55;8.20;;;1.80;;
72301;SDS011;60235;52.234;5.186;2023-04-03T04:50:21;10.52;;;1.98;;
72301;SDS011;60235;52.234;5.186;2023-04-03T04:52:47;7.93;;;1.98;;
72301;SDS011;60235;52.234;5.186;2023-04-03T04:55:13;7.18;;;1.77;;
72301;SDS011;60235;52.234;5.186;2023-04-03T04:57:39;6.90;;;1.63;;
72301;SDS011;60235;52.234;5.186;2023-04-03T05:00:05;6.60;;;1.48;;
72301;SDS011;60235;52.234;5.186;2023-04-03T05:02:31;8.80;;;1.80;;
72301;SDS011;60235;52.234;5.186;2023-04-03T05:04:57;7.00;;;2.08;;
72301;SDS011;60235;52.234;5.186;2023-04-03T05:07:24;7.70;;;2.08;;
72301;SDS011;60235;52.234;5.186;2023-04-03T05:09:50;7.90;;;1.90;;
72301;SDS011;60235;52.234;5.186;2023-04-03T05:12:16;8.07;;;1.83;;
72301;SDS011;60235;52.234;5.186;2023-04-03T05:14:42;6.43;;;1.63;;
72301;SDS011;60235;52.234;5.186;2023-04-03T05:17:08;9.95;;;2.53;;
72301;SDS011;60235;52.234;5.186;2023-04-03T05:19:34;7.57;;;1.70;;
72301;SDS011;60235;52.234;5.186;2023-04-03T05:22:00;7.10;;;1.95;;
72301;SDS011;60235;52.234;5.186;2023-04-03T05:24:27;8.30;;;1.80;;
72301;SDS011;60235;52.234;5.186;2023-04-03T05:26:53;7.15;;;1.80;;
72301;SDS011;60235;52.234;5.186;2023-04-03T05:29:20;8.80;;;2.05;;
72301;SDS011;60235;52.234;5.186;2023-04-03T05:31:48;5.57;;;1.77;;
72301;SDS011;60235;52.234;5.186;2023-04-03T05:34:14;8.05;;;1.80;;
72301;SDS011;60235;52.234;5.186;2023-04-03T05:36:40;6.97;;;2.00;;
72301;SDS011;60235;52.234;5.186;2023-04-03T05:39:06;8.88;;;1.77;;
72301;SDS011;60235;52.234;5.186;2023-04-03T05:41:33;4.78;;;1.50;;
72301;SDS011;60235;52.234;5.186;2023-04-03T05:43:59;6.47;;;2.03;;
72301;SDS011;60235;52.234;5.186;2023-04-03T05:46:25;7.75;;;1.80;;
72301;SDS011;60235;52.234;5.186;2023-04-03T05:48:51;8.40;;;2.08;;
72301;SDS011;60235;52.234;5.186;2023-04-03T05:51:28;9.75;;;2.22;;
72301;SDS011;60235;52.234;5.186;2023-04-03T05:54:01;7.00;;;2.15;;
72301;SDS011;60235;52.234;5.186;2023-04-03T05:56:28;8.23;;;2.05;;
72301;SDS011;60235;52.234;5.186;2023-04-03T05:58:54;8.27;;;1.67;;
72301;SDS011;60235;52.234;5.186;2023-04-03T06:01:21;6.70;;;1.88;;
72301;SDS011;60235;52.234;5.186;2023-04-03T06:03:48;9.07;;;2.00;;
72301;SDS011;60235;52.234;5.186;2023-04-03T06:06:14;7.00;;;1.77;;
72301;SDS011;60235;52.234;5.186;2023-04-03T06:08:40;5.50;;;1.85;;
72301;SDS011;60235;52.234;5.186;2023-04-03T06:11:06;7.38;;;1.95;;
72301;SDS011;60235;52.234;5.186;2023-04-03T06:13:33;8.32;;;1.75;;
72301;SDS011;60235;52.234;5.186;2023-04-03T06:16:00;10.30;;;1.98;;
72301;SDS011;60235;52.234;5.186;2023-04-03T06:18:27;8.75;;;2.00;;
72301;SDS011;60235;52.234;5.186;2023-04-03T06:20:53;7.05;;;1.77;;
72301;SDS011;60235;52.234;5.186;2023-04-03T06:23:19;5.60;;;1.60;;
72301;SDS011;60235;52.234;5.186;2023-04-03T06:25:45;8.13;;;1.83;;
72301;SDS011;60235;52.234;5.186;2023-04-03T06:28:12;5.40;;;1.50;;
72301;SDS011;60235;52.234;5.186;2023-04-03T06:30:38;6.53;;;1.52;;
72301;SDS011;60235;52.234;5.186;2023-04-03T06:33:04;8.10;;;1.80;;
72301;SDS011;60235;52.234;5.186;2023-04-03T06:35:30;8.95;;;1.88;;
72301;SDS011;60235;52.234;5.186;2023-04-03T06:37:56;10.00;;;1.85;;
72301;SDS011;60235;52.234;5.186;2023-04-03T06:40:23;5.75;;;1.65;;
72301;SDS011;60235;52.234;5.186;2023-04-03T06:42:50;9.38;;;1.77;;
72301;SDS011;60235;52.234;5.186;2023-04-03T06:45:16;6.22;;;1.88;;
72301;SDS011;60235;52.234;5.186;2023-04-03T06:47:42;8.13;;;2.00;;
72301;SDS011;60235;52.234;5.186;2023-04-03T06:50:09;10.15;;;2.03;;
72301;SDS011;60235;52.234;5.186;2023-04-03T06:52:36;8.23;;;2.22;;
72301;SDS011;60235;52.234;5.186;2023-04-03T06:55:04;7.85;;;2.05;;
72301;SDS011;60235;52.234;5.186;2023-04-03T06:57:30;7.35;;;1.67;;
72301;SDS011;60235;52.234;5.186;2023-04-03T06:59:57;7.65;;;1.98;;
72301;SDS011;60235;52.234;5.186;2023-04-03T07:02:23;8.70;;;1.70;;
72301;SDS011;60235;52.234;5.186;2023-04-03T07:04:49;6.03;;;1.88;;
72301;SDS011;60235;52.234;5.186;2023-04-03T07:07:15;7.47;;;2.30;;
72301;SDS011;60235;52.234;5.186;2023-04-03T07:09:42;8.00;;;2.30;;
72301;SDS011;60235;52.234;5.186;2023-04-03T07:12:09;7.22;;;2.00;;
72301;SDS011;60235;52.234;5.186;2023-04-03T07:14:34;9.43;;;1.83;;
72301;SDS011;60235;52.234;5.186;2023-04-03T07:17:01;6.55;;;2.00;;
72301;SDS011;60235;52.234;5.186;2023-04-03T07:19:27;7.22;;;2.03;;
72301;SDS011;60235;52.234;5.186;2023-04-03T07:21:53;9.95;;;2.13;;
72301;SDS011;60235;52.234;5.186;2023-04-03T07:24:19;7.82;;;1.90;;
72301;SDS011;60235;52.234;5.186;2023-04-03T07:26:48;6.93;;;1.50;;
72301;SDS011;60235;52.234;5.186;2023-04-03T07:29:21;9.32;;;1.80;;
72301;SDS011;60235;52.234;5.186;2023-04-03T07:31:47;10.20;;;2.42;;
72301;SDS011;60235;52.234;5.186;2023-04-03T07:34:14;5.47;;;1.85;;
72301;SDS011;60235;52.234;5.186;2023-04-03T07:36:40;8.88;;;1.80;;
72301;SDS011;60235;52.234;5.186;2023-04-03T07:39:06;6.88;;;1.50;;
72301;SDS011;60235;52.234;5.186;2023-04-03T07:41:33;7.57;;;1.67;;
72301;SDS011;60235;52.234;5.186;2023-04-03T07:43:59;7.07;;;2.00;;
72301;SDS011;60235;52.234;5.186;2023-04-03T07:46:25;4.40;;;1.63;;
72301;SDS011;60235;52.234;5.186;2023-04-03T07:48:51;6.63;;;1.90;;
72301;SDS011;60235;52.234;5.186;2023-04-03T07:51:17;6.90;;;1.70;;
72301;SDS011;60235;52.234;5.186;2023-04-03T07:53:44;8.02;;;1.80;;
72301;SDS011;60235;52.234;5.186;2023-04-03T07:56:10;7.82;;;1.75;;
72301;SDS011;60235;52.234;5.186;2023-04-03T07:58:36;6.35;;;1.50;;
72301;SDS011;60235;52.234;5.186;2023-04-03T08:01:02;10.05;;;2.20;;
72301;SDS011;60235;52.234;5.186;2023-04-03T08:03:28;6.57;;;1.40;;
72301;SDS011;60235;52.234;5.186;2023-04-03T08:05:54;6.63;;;1.55;;
72301;SDS011;60235;52.234;5.186;2023-04-03T08:08:21;6.03;;;1.60;;
72301;SDS011;60235;52.234;5.186;2023-04-03T08:10:48;7.72;;;2.05;;
72301;SDS011;60235;52.234;5.186;2023-04-03T08:13:14;7.03;;;1.83;;
72301;SDS011;60235;52.234;5.186;2023-04-03T08:15:40;7.60;;;1.70;;
72301;SDS011;60235;52.234;5.186;2023-04-03T08:18:06;6.82;;;1.40;;
72301;SDS011;60235;52.234;5.186;2023-04-03T08:20:33;5.40;;;1.50;;
72301;SDS011;60235;52.234;5.186;2023-04-03T08:22:59;5.55;;;1.20;;
72301;SDS011;60235;52.234;5.186;2023-04-03T08:25:25;5.07;;;1.33;;
72301;SDS011;60235;52.234;5.186;2023-04-03T08:27:51;6.75;;;1.73;;
72301;SDS011;60235;52.234;5.186;2023-04-03T08:30:17;6.32;;;1.40;;
72301;SDS011;60235;52.234;5.186;2023-04-03T08:32:43;6.47;;;1.20;;
72301;SDS011;60235;52.234;5.186;2023-04-03T08:35:09;5.40;;;1.25;;
72301;SDS011;60235;52.234;5.186;2023-04-03T08:37:36;4.28;;;1.25;;
72301;SDS011;60235;52.234;5.186;2023-04-03T08:40:06;7.00;;;1.50;;
72301;SDS011;60235;52.234;5.186;2023-04-03T08:45:02;7.80;;;1.50;;
72301;SDS011;60235;52.234;5.186;2023-04-03T08:52:32;4.07;;;1.10;;
72301;SDS011;60235;52.234;5.186;2023-04-03T08:55:01;3.85;;;1.08;;
72301;SDS011;60235;52.234;5.186;2023-04-03T08:57:33;3.83;;;0.98;;
72301;SDS011;60235;52.234;5.186;2023-04-03T09:00:02;3.95;;;1.10;;
72301;SDS011;60235;52.234;5.186;2023-04-03T09:04:55;3.80;;;0.90;;
72301;SDS011;60235;52.234;5.186;2023-04-03T09:08:07;4.72;;;1.15;;
72301;SDS011;60235;52.234;5.186;2023-04-03T09:10:09;5.50;;;1.00;;
72301;SDS011;60235;52.234;5.186;2023-04-03T09:12:37;3.55;;;0.93;;
72301;SDS011;60235;52.234;5.186;2023-04-03T09:22:41;5.22;;;1.00;;
72301;SDS011;60235;52.234;5.186;2023-04-03T09:25:15;4.75;;;1.00;;
72301;SDS011;60235;52.234;5.186;2023-04-03T09:27:42;4.05;;;1.05;;
72301;SDS011;60235;52.234;5.186;2023-04-03T09:30:13;5.57;;;1.30;;
72301;SDS011;60235;52.234;5.186;2023-04-03T09:32:39;6.32;;;1.02;;
72301;SDS011;60235;52.234;5.186;2023-04-03T09:35:50;4.47;;;0.90;;
72301;SDS011;60235;52.234;5.186;2023-04-03T09:37:58;5.15;;;0.90;;
72301;SDS011;60235;52.234;5.186;2023-04-03T09:42:51;3.60;;;0.90;;
72301;SDS011;60235;52.234;5.186;2023-04-03T09:45:32;2.25;;;0.60;;
72301;SDS011;60235;52.234;5.186;2023-04-03T09:48:05;4.38;;;1.00;;
72301;SDS011;60235;52.234;5.186;2023-04-03T09:50:33;3.42;;;1.08;;
72301;SDS011;60235;52.234;5.186;2023-04-03T09:53:02;3.20;;;0.73;;
72301;SDS011;60235;52.234;5.186;2023-04-03T09:55:30;2.95;;;0.70;;
72301;SDS011;60235;52.234;5.186;2023-04-03T09:57:57;3.90;;;1.15;;
72301;SDS011;60235;52.234;5.186;2023-04-03T10:02:51;4.55;;;0.90;;
72301;SDS011;60235;52.234;5.186;2023-04-03T10:05:32;3.35;;;0.90;;
72301;SDS011;60235;52.234;5.186;2023-04-03T10:08:08;4.07;;;0.90;;
72301;SDS011;60235;52.234;5.186;2023-04-03T10:10:35;3.45;;;0.75;;
72301;SDS011;60235;52.234;5.186;2023-04-03T10:13:05;4.53;;;0.98;;
72301;SDS011;60235;52.234;5.186;2023-04-03T10:15:33;5.25;;;0.90;;
72301;SDS011;60235;52.234;5.186;2023-04-03T10:18:02;4.47;;;0.70;;
72301;SDS011;60235;52.234;5.186;2023-04-03T10:20:37;3.63;;;0.90;;
72301;SDS011;60235;52.234;5.186;2023-04-03T10:25:59;6.38;;;0.70;;
72301;SDS011;60235;52.234;5.186;2023-04-03T10:28:30;2.30;;;0.55;;
72301;SDS011;60235;52.234;5.186;2023-04-03T10:33:57;2.83;;;0.68;;
72301;SDS011;60235;52.234;5.186;2023-04-03T10:36:27;1.63;;;0.50;;
72301;SDS011;60235;52.234;5.186;2023-04-03T10:39:02;2.83;;;0.90;;
72301;SDS011;60235;52.234;5.186;2023-04-03T10:47:02;3.53;;;0.70;;
72301;SDS011;60235;52.234;5.186;2023-04-03T10:54:25;1.08;;;0.40;;
72301;SDS011;60235;52.234;5.186;2023-04-03T10:57:01;2.03;;;0.70;;
72301;SDS011;60235;52.234;5.186;2023-04-03T10:59:32;3.50;;;0.65;;
72301;SDS011;60235;52.234;5.186;2023-04-03T11:02:12;1.88;;;0.57;;
72301;SDS011;60235;52.234;5.186;2023-04-03T11:04:40;2.20;;;0.70;;
72301;SDS011;60235;52.234;5.186;2023-04-03T11:07:22;4.60;;;0.70;;
72301;SDS011;60235;52.234;5.186;2023-04-03T11:09:50;1.65;;;0.40;;
72301;SDS011;60235;52.234;5.186;2023-04-03T11:12:23;9.80;;;0.75;;
72301;SDS011;60235;52.234;5.186;2023-04-03T11:14:51;1.77;;;0.38;;
72301;SDS011;60235;52.234;5.186;2023-04-03T11:24:41;3.42;;;0.77;;
72301;SDS011;60235;52.234;5.186;2023-04-03T11:27:18;6.47;;;0.80;;
72301;SDS011;60235;52.234;5.186;2023-04-03T11:29:47;2.83;;;0.73;;
72301;SDS011;60235;52.234;5.186;2023-04-03T11:34:42;3.05;;;0.68;;
72301;SDS011;60235;52.234;5.186;2023-04-03T11:39:38;4.35;;;0.60;;
72301;SDS011;60235;52.234;5.186;2023-04-03T11:42:16;2.08;;;0.63;;
72301;SDS011;60235;52.234;5.186;2023-04-03T11:44:43;5.97;;;0.73;;
72301;SDS011;60235;52.234;5.186;2023-04-03T11:47:10;3.97;;;0.63;;
72301;SDS011;60235;52.234;5.186;2023-04-03T11:49:50;2.25;;;0.50;;
72301;SDS011;60235;52.234;5.186;2023-04-03T11:55:01;2.03;;;0.60;;
72301;SDS011;60235;52.234;5.186;2023-04-03T12:02:56;3.13;;;0.70;;
72301;SDS011;60235;52.234;5.186;2023-04-03T12:05:31;3.28;;;0.75;;
72301;SDS011;60235;52.234;5.186;2023-04-03T12:10:23;4.30;;;0.80;;
72301;SDS011;60235;52.234;5.186;2023-04-03T12:12:56;5.75;;;1.10;;
72301;SDS011;60235;52.234;5.186;2023-04-03T12:15:25;3.85;;;0.93;;
72301;SDS011;60235;52.234;5.186;2023-04-03T12:17:52;3.03;;;1.00;;
72301;SDS011;60235;52.234;5.186;2023-04-03T12:23:22;2.30;;;0.63;;
72301;SDS011;60235;52.234;5.186;2023-04-03T12:25:49;4.93;;;1.13;;
72301;SDS011;60235;52.234;5.186;2023-04-03T12:28:16;2.80;;;0.88;;
72301;SDS011;60235;52.234;5.186;2023-04-03T12:30:42;3.15;;;0.52;;
72301;SDS011;60235;52.234;5.186;2023-04-03T12:33:20;3.20;;;0.75;;
72301;SDS011;60235;52.234;5.186;2023-04-03T12:38:37;4.47;;;0.90;;
72301;SDS011;60235;52.234;5.186;2023-04-03T12:46:21;3.67;;;0.68;;
72301;SDS011;60235;52.234;5.186;2023-04-03T12:48:48;4.00;;;0.80;;
72301;SDS011;60235;52.234;5.186;2023-04-03T12:51:22;6.70;;;0.90;;
72301;SDS011;60235;52.234;5.186;2023-04-03T12:53:49;2.92;;;0.80;;
72301;SDS011;60235;52.234;5.186;2023-04-03T12:56:21;1.65;;;0.60;;
72301;SDS011;60235;52.234;5.186;2023-04-03T12:58:49;4.53;;;1.00;;
72301;SDS011;60235;52.234;5.186;2023-04-03T13:01:22;3.63;;;1.20;;
72301;SDS011;60235;52.234;5.186;2023-04-03T13:03:50;4.20;;;0.93;;
72301;SDS011;60235;52.234;5.186;2023-04-03T13:06:19;3.95;;;1.00;;
72301;SDS011;60235;52.234;5.186;2023-04-03T13:08:51;6.05;;;0.98;;
72301;SDS011;60235;52.234;5.186;2023-04-03T13:11:17;5.00;;;1.17;;
72301;SDS011;60235;52.234;5.186;2023-04-03T13:13:55;8.10;;;1.00;;
72301;SDS011;60235;52.234;5.186;2023-04-03T13:16:21;4.68;;;0.90;;
72301;SDS011;60235;52.234;5.186;2023-04-03T13:18:54;5.38;;;1.13;;
72301;SDS011;60235;52.234;5.186;2023-04-03T13:21:30;3.55;;;0.82;;
72301;SDS011;60235;52.234;5.186;2023-04-03T13:23:58;3.25;;;0.90;;
72301;SDS011;60235;52.234;5.186;2023-04-03T13:26:25;3.38;;;0.88;;
72301;SDS011;60235;52.234;5.186;2023-04-03T13:28:52;3.25;;;0.80;;
72301;SDS011;60235;52.234;5.186;2023-04-03T13:31:22;3.90;;;1.02;;
72301;SDS011;60235;52.234;5.186;2023-04-03T13:33:57;3.72;;;1.10;;
72301;SDS011;60235;52.234;5.186;2023-04-03T13:36:37;4.50;;;0.93;;
72301;SDS011;60235;52.234;5.186;2023-04-03T13:41:37;2.72;;;0.75;;
72301;SDS011;60235;52.234;5.186;2023-04-03T13:46:52;3.15;;;0.73;;
72301;SDS011;60235;52.234;5.186;2023-04-03T13:51:45;2.20;;;0.80;;
72301;SDS011;60235;52.234;5.186;2023-04-03T13:54:20;3.40;;;0.90;;
72301;SDS011;60235;52.234;5.186;2023-04-03T14:01:46;3.80;;;0.80;;
72301;SDS011;60235;52.234;5.186;2023-04-03T14:04:24;3.45;;;0.80;;
72301;SDS011;60235;52.234;5.186;2023-04-03T14:06:51;5.85;;;0.90;;
72301;SDS011;60235;52.234;5.186;2023-04-03T14:09:17;4.72;;;1.10;;
72301;SDS011;60235;52.234;5.186;2023-04-03T14:11:44;3.63;;;0.90;;
72301;SDS011;60235;52.234;5.186;2023-04-03T14:14:18;3.60;;;1.02;;
72301;SDS011;60235;52.234;5.186;2023-04-03T14:16:48;5.18;;;1.00;;
72301;SDS011;60235;52.234;5.186;2023-04-03T14:19:20;4.60;;;1.10;;
72301;SDS011;60235;52.234;5.186;2023-04-03T14:21:46;6.05;;;0.95;;
72301;SDS011;60235;52.234;5.186;2023-04-03T14:24:12;4.78;;;1.33;;
72301;SDS011;60235;52.234;5.186;2023-04-03T14:26:39;3.42;;;0.90;;
72301;SDS011;60235;52.234;5.186;2023-04-03T14:29:05;3.80;;;1.00;;
72301;SDS011;60235;52.234;5.186;2023-04-03T14:31:31;4.43;;;1.10;;
72301;SDS011;60235;52.234;5.186;2023-04-03T14:33:57;4.72;;;1.17;;
72301;SDS011;60235;52.234;5.186;2023-04-03T14:36:24;7.22;;;1.40;;
72301;SDS011;60235;52.234;5.186;2023-04-03T14:38:51;6.97;;;1.33;;
72301;SDS011;60235;52.234;5.186;2023-04-03T14:41:20;3.85;;;1.08;;
72301;SDS011;60235;52.234;5.186;2023-04-03T14:43:47;4.25;;;1.20;;
72301;SDS011;60235;52.234;5.186;2023-04-03T14:46:18;4.35;;;0.90;;
72301;SDS011;60235;52.234;5.186;2023-04-03T14:48:44;5.13;;;1.20;;
72301;SDS011;60235;52.234;5.186;2023-04-03T14:51:11;6.30;;;1.30;;
72301;SDS011;60235;52.234;5.186;2023-04-03T14:53:37;5.20;;;1.20;;
72301;SDS011;60235;52.234;5.186;2023-04-03T14:56:08;6.95;;;1.20;;
72301;SDS011;60235;52.234;5.186;2023-04-03T14:58:36;3.33;;;1.00;;
72301;SDS011;60235;52.234;5.186;2023-04-03T15:01:02;4.07;;;1.27;;
72301;SDS011;60235;52.234;5.186;2023-04-03T15:03:28;4.82;;;1.20;;
72301;SDS011;60235;52.234;5.186;2023-04-03T15:05:54;3.20;;;0.98;;
72301;SDS011;60235;52.234;5.186;2023-04-03T15:08:21;4.20;;;1.33;;
72301;SDS011;60235;52.234;5.186;2023-04-03T15:10:49;5.80;;;1.35;;
72301;SDS011;60235;52.234;5.186;2023-04-03T15:13:17;5.35;;;1.05;;
72301;SDS011;60235;52.234;5.186;2023-04-03T15:15:43;5.35;;;1.20;;
72301;SDS011;60235;52.234;5.186;2023-04-03T15:18:23;3.38;;;1.00;;
72301;SDS011;60235;52.234;5.186;2023-04-03T15:20:51;4.47;;;1.10;;
72301;SDS011;60235;52.234;5.186;2023-04-03T15:23:18;5.30;;;1.10;;
72301;SDS011;60235;52.234;5.186;2023-04-03T15:25:45;6.65;;;1.45;;
72301;SDS011;60235;52.234;5.186;2023-04-03T15:30:44;5.90;;;1.10;;
72301;SDS011;60235;52.234;5.186;2023-04-03T15:33:10;5.60;;;1.40;;
72301;SDS011;60235;52.234;5.186;2023-04-03T15:35:36;6.90;;;1.20;;
72301;SDS011;60235;52.234;5.186;2023-04-03T15:38:02;4.22;;;1.10;;
72301;SDS011;60235;52.234;5.186;2023-04-03T15:40:28;4.68;;;0.90;;
72301;SDS011;60235;52.234;5.186;2023-04-03T15:42:54;4.47;;;1.23;;
72301;SDS011;60235;52.234;5.186;2023-04-03T15:45:20;7.38;;;1.27;;
72301;SDS011;60235;52.234;5.186;2023-04-03T15:47:46;6.63;;;1.27;;
72301;SDS011;60235;52.234;5.186;2023-04-03T15:50:12;6.13;;;1.30;;
72301;SDS011;60235;52.234;5.186;2023-04-03T15:52:38;6.18;;;1.50;;
72301;SDS011;60235;52.234;5.186;2023-04-03T15:55:05;4.47;;;0.90;;
72301;SDS011;60235;52.234;5.186;2023-04-03T15:57:31;4.88;;;1.42;;
72301;SDS011;60235;52.234;5.186;2023-04-03T15:59:57;3.80;;;0.90;;
72301;SDS011;60235;52.234;5.186;2023-04-03T16:02:23;4.32;;;1.10;;
72301;SDS011;60235;52.234;5.186;2023-04-03T16:04:52;5.40;;;1.38;;
72301;SDS011;60235;52.234;5.186;2023-04-03T16:07:19;6.60;;;1.77;;
72301;SDS011;60235;52.234;5.186;2023-04-03T16:09:45;6.88;;;1.27;;
72301;SDS011;60235;52.234;5.186;2023-04-03T16:12:11;4.75;;;1.35;;
72301;SDS011;60235;52.234;5.186;2023-04-03T16:14:37;4.07;;;1.10;;
72301;SDS011;60235;52.234;5.186;2023-04-03T16:17:03;6.47;;;1.50;;
72301;SDS011;60235;52.234;5.186;2023-04-03T16:19:29;7.55;;;1.70;;
72301;SDS011;60235;52.234;5.186;2023-04-03T16:21:55;5.47;;;1.38;;